sensor_id;sensor_type;location;lat;lon;timestamp;temperature;humidity
20759;DHT22;10539;53.686;9.158;2023-06-14T00:01:57;16.50;99.90
20759;DHT22;10539;53.686;9.158;2023-06-14T00:04:23;16.50;99.90
20759;DHT22;10539;53.686;9.158;2023-06-14T00:06:50;16.50;99.90
20759;DHT22;10539;53.686;9.158;2023-06-14T00:09:16;16.50;99.90
20759;DHT22;10539;53.686;9.158;2023-06-14T00:11:45;16.50;99.90
20759;DHT22;10539;53.686;9.158;2023-06-14T00:14:10;16.40;99.90
20759;DHT22;10539;53.686;9.158;2023-06-14T00:16:36;16.40;99.90
20759;DHT22;10539;53.686;9.158;2023-06-14T00:19:02;16.40;99.90
20759;DHT22;10539;53.686;9.158;2023-06-14T00:21:31;16.40;99.90
20759;DHT22;10539;53.686;9.158;2023-06-14T00:23:58;16.40;99.90
20759;DHT22;10539;53.686;9.158;2023-06-14T00:26:25;16.40;99.90
20759;DHT22;10539;53.686;9.158;2023-06-14T00:28:52;16.40;99.90
20759;DHT22;10539;53.686;9.158;2023-06-14T00:31:17;16.30;99.90
20759;DHT22;10539;53.686;9.158;2023-06-14T00:33:43;16.30;99.90
20759;DHT22;10539;53.686;9.158;2023-06-14T00:36:09;16.30;99.90
20759;DHT22;10539;53.686;9.158;2023-06-14T00:38:35;16.30;99.90
20759;DHT22;10539;53.686;9.158;2023-06-14T00:41:00;16.20;99.90
20759;DHT22;10539;53.686;9.158;2023-06-14T00:43:26;16.20;99.90
20759;DHT22;10539;53.686;9.158;2023-06-14T00:45:52;16.20;99.90
20759;DHT22;10539;53.686;9.158;2023-06-14T00:48:17;16.10;99.90
20759;DHT22;10539;53.686;9.158;2023-06-14T00:50:45;16.10;99.90
20759;DHT22;10539;53.686;9.158;2023-06-14T00:53:15;16.10;99.90
20759;DHT22;10539;53.686;9.158;2023-06-14T00:55:43;16.00;99.90
20759;DHT22;10539;53.686;9.158;2023-06-14T00:58:09;16.00;99.90
20759;DHT22;10539;53.686;9.158;2023-06-14T01:00:36;16.00;99.90
20759;DHT22;10539;53.686;9.158;2023-06-14T01:03:02;15.90;99.90
20759;DHT22;10539;53.686;9.158;2023-06-14T01:05:29;15.90;99.90
20759;DHT22;10539;53.686;9.158;2023-06-14T01:13:29;15.70;99.90
20759;DHT22;10539;53.686;9.158;2023-06-14T01:15:57;15.70;99.90
20759;DHT22;10539;53.686;9.158;2023-06-14T01:18:24;15.70;99.90
20759;DHT22;10539;53.686;9.158;2023-06-14T01:20:51;15.70;99.90
20759;DHT22;10539;53.686;9.158;2023-06-14T01:23:22;15.60;99.90
20759;DHT22;10539;53.686;9.158;2023-06-14T01:25:48;15.60;99.90
20759;DHT22;10539;53.686;9.158;2023-06-14T01:28:19;15.60;99.90
20759;DHT22;10539;53.686;9.158;2023-06-14T01:30:49;15.60;99.90
20759;DHT22;10539;53.686;9.158;2023-06-14T01:33:22;15.50;99.90
20759;DHT22;10539;53.686;9.158;2023-06-14T01:35:50;15.50;99.90
20759;DHT22;10539;53.686;9.158;2023-06-14T01:38:20;15.50;99.90
20759;DHT22;10539;53.686;9.158;2023-06-14T01:40:48;15.50;99.90
20759;DHT22;10539;53.686;9.158;2023-06-14T01:43:15;15.50;99.90
20759;DHT22;10539;53.686;9.158;2023-06-14T01:45:42;15.40;99.90
20759;DHT22;10539;53.686;9.158;2023-06-14T01:48:09;15.40;99.90
20759;DHT22;10539;53.686;9.158;2023-06-14T01:50:35;15.40;99.90
20759;DHT22;10539;53.686;9.158;2023-06-14T01:53:01;15.40;99.90
20759;DHT22;10539;53.686;9.158;2023-06-14T01:55:27;15.40;99.90
20759;DHT22;10539;53.686;9.158;2023-06-14T01:57:53;15.40;99.90
20759;DHT22;10539;53.686;9.158;2023-06-14T02:00:20;15.30;99.90
20759;DHT22;10539;53.686;9.158;2023-06-14T02:02:47;15.40;99.90
20759;DHT22;10539;53.686;9.158;2023-06-14T02:05:12;15.30;99.90
20759;DHT22;10539;53.686;9.158;2023-06-14T02:07:38;15.30;99.90
20759;DHT22;10539;53.686;9.158;2023-06-14T02:10:05;15.30;99.90
20759;DHT22;10539;53.686;9.158;2023-06-14T02:12:31;15.30;99.90
20759;DHT22;10539;53.686;9.158;2023-06-14T02:14:57;15.30;99.90
20759;DHT22;10539;53.686;9.158;2023-06-14T02:17:23;15.20;99.90
20759;DHT22;10539;53.686;9.158;2023-06-14T02:19:49;15.20;99.90
20759;DHT22;10539;53.686;9.158;2023-06-14T02:22:16;15.20;99.90
20759;DHT22;10539;53.686;9.158;2023-06-14T02:24:43;15.20;99.90
20759;DHT22;10539;53.686;9.158;2023-06-14T02:27:08;15.20;99.90
20759;DHT22;10539;53.686;9.158;2023-06-14T02:29:37;15.10;99.90
20759;DHT22;10539;53.686;9.158;2023-06-14T02:32:06;15.10;99.90
20759;DHT22;10539;53.686;9.158;2023-06-14T02:34:35;15.10;99.90
20759;DHT22;10539;53.686;9.158;2023-06-14T02:37:02;15.10;99.90
20759;DHT22;10539;53.686;9.158;2023-06-14T02:39:30;15.10;99.90
20759;DHT22;10539;53.686;9.158;2023-06-14T02:41:56;15.00;99.90
20759;DHT22;10539;53.686;9.158;2023-06-14T02:44:25;15.00;99.90
20759;DHT22;10539;53.686;9.158;2023-06-14T02:46:55;15.00;99.90
20759;DHT22;10539;53.686;9.158;2023-06-14T02:49:22;15.00;99.90
20759;DHT22;10539;53.686;9.158;2023-06-14T02:51:48;14.90;99.90
20759;DHT22;10539;53.686;9.158;2023-06-14T02:54:14;14.90;99.90
20759;DHT22;10539;53.686;9.158;2023-06-14T02:56:40;14.90;99.90
20759;DHT22;10539;53.686;9.158;2023-06-14T02:59:06;14.90;99.90
20759;DHT22;10539;53.686;9.158;2023-06-14T03:01:33;14.90;99.90
20759;DHT22;10539;53.686;9.158;2023-06-14T03:04:04;14.90;99.90
20759;DHT22;10539;53.686;9.158;2023-06-14T03:06:30;14.90;99.90
20759;DHT22;10539;53.686;9.158;2023-06-14T03:09:00;14.90;99.90
20759;DHT22;10539;53.686;9.158;2023-06-14T03:11:26;14.90;99.90
20759;DHT22;10539;53.686;9.158;2023-06-14T03:13:53;14.90;99.90
20759;DHT22;10539;53.686;9.158;2023-06-14T03:16:19;14.90;99.90
20759;DHT22;10539;53.686;9.158;2023-06-14T03:18:52;14.90;99.90
20759;DHT22;10539;53.686;9.158;2023-06-14T03:21:19;14.90;99.90
20759;DHT22;10539;53.686;9.158;2023-06-14T03:23:46;14.90;99.90
20759;DHT22;10539;53.686;9.158;2023-06-14T03:26:13;14.90;99.90
20759;DHT22;10539;53.686;9.158;2023-06-14T03:28:40;14.90;99.90
20759;DHT22;10539;53.686;9.158;2023-06-14T03:31:07;14.90;99.90
20759;DHT22;10539;53.686;9.158;2023-06-14T03:33:34;14.90;99.90
20759;DHT22;10539;53.686;9.158;2023-06-14T03:36:01;14.90;99.90
20759;DHT22;10539;53.686;9.158;2023-06-14T03:38:28;14.90;99.90
20759;DHT22;10539;53.686;9.158;2023-06-14T03:40:53;14.90;99.90
20759;DHT22;10539;53.686;9.158;2023-06-14T03:43:19;14.90;99.90
20759;DHT22;10539;53.686;9.158;2023-06-14T03:45:45;14.90;99.90
20759;DHT22;10539;53.686;9.158;2023-06-14T03:48:11;15.00;99.90
20759;DHT22;10539;53.686;9.158;2023-06-14T03:50:37;15.00;99.90
20759;DHT22;10539;53.686;9.158;2023-06-14T03:53:04;15.00;99.90
20759;DHT22;10539;53.686;9.158;2023-06-14T03:55:30;15.00;99.90
20759;DHT22;10539;53.686;9.158;2023-06-14T03:57:59;15.00;99.90
20759;DHT22;10539;53.686;9.158;2023-06-14T04:00:25;15.00;99.90
20759;DHT22;10539;53.686;9.158;2023-06-14T04:02:51;15.00;99.90
20759;DHT22;10539;53.686;9.158;2023-06-14T04:05:17;15.00;99.90
20759;DHT22;10539;53.686;9.158;2023-06-14T04:07:45;15.00;99.90
20759;DHT22;10539;53.686;9.158;2023-06-14T04:10:14;15.00;99.90
20759;DHT22;10539;53.686;9.158;2023-06-14T04:12:40;15.00;99.90
20759;DHT22;10539;53.686;9.158;2023-06-14T04:15:06;15.00;99.90
20759;DHT22;10539;53.686;9.158;2023-06-14T04:17:33;15.00;99.90
20759;DHT22;10539;53.686;9.158;2023-06-14T04:20:00;15.00;99.90
20759;DHT22;10539;53.686;9.158;2023-06-14T04:22:27;15.00;99.90
20759;DHT22;10539;53.686;9.158;2023-06-14T04:24:56;15.10;99.90
20759;DHT22;10539;53.686;9.158;2023-06-14T04:27:26;15.20;99.90
20759;DHT22;10539;53.686;9.158;2023-06-14T04:29:53;15.20;99.90
20759;DHT22;10539;53.686;9.158;2023-06-14T04:32:29;15.20;99.90
20759;DHT22;10539;53.686;9.158;2023-06-14T04:34:59;15.30;99.90
20759;DHT22;10539;53.686;9.158;2023-06-14T04:37:27;15.30;99.90
20759;DHT22;10539;53.686;9.158;2023-06-14T04:39:55;15.30;99.90
20759;DHT22;10539;53.686;9.158;2023-06-14T04:42:22;15.30;99.90
20759;DHT22;10539;53.686;9.158;2023-06-14T04:44:51;15.40;99.90
20759;DHT22;10539;53.686;9.158;2023-06-14T04:47:17;15.40;99.90
20759;DHT22;10539;53.686;9.158;2023-06-14T04:49:43;15.40;99.90
20759;DHT22;10539;53.686;9.158;2023-06-14T04:52:10;15.40;99.90
20759;DHT22;10539;53.686;9.158;2023-06-14T04:54:36;15.50;99.90
20759;DHT22;10539;53.686;9.158;2023-06-14T04:57:07;15.50;99.90
20759;DHT22;10539;53.686;9.158;2023-06-14T04:59:34;15.60;99.90
20759;DHT22;10539;53.686;9.158;2023-06-14T05:02:01;15.60;99.90
20759;DHT22;10539;53.686;9.158;2023-06-14T05:04:29;15.60;99.90
20759;DHT22;10539;53.686;9.158;2023-06-14T05:06:58;15.70;99.90
20759;DHT22;10539;53.686;9.158;2023-06-14T05:09:24;15.70;99.90
20759;DHT22;10539;53.686;9.158;2023-06-14T05:11:50;15.80;99.90
20759;DHT22;10539;53.686;9.158;2023-06-14T05:14:16;15.80;99.90
20759;DHT22;10539;53.686;9.158;2023-06-14T05:16:43;15.90;99.90
20759;DHT22;10539;53.686;9.158;2023-06-14T05:19:16;16.00;99.90
20759;DHT22;10539;53.686;9.158;2023-06-14T05:21:46;16.00;99.90
20759;DHT22;10539;53.686;9.158;2023-06-14T05:24:22;16.00;99.90
20759;DHT22;10539;53.686;9.158;2023-06-14T05:26:48;16.10;99.90
20759;DHT22;10539;53.686;9.158;2023-06-14T05:29:19;16.20;99.90
20759;DHT22;10539;53.686;9.158;2023-06-14T05:31:45;16.30;99.90
20759;DHT22;10539;53.686;9.158;2023-06-14T05:34:10;16.40;99.90
20759;DHT22;10539;53.686;9.158;2023-06-14T05:36:36;16.40;99.90
20759;DHT22;10539;53.686;9.158;2023-06-14T05:39:02;16.40;99.90
20759;DHT22;10539;53.686;9.158;2023-06-14T05:41:29;16.50;99.90
20759;DHT22;10539;53.686;9.158;2023-06-14T05:43:55;16.60;99.90
20759;DHT22;10539;53.686;9.158;2023-06-14T05:46:22;16.70;99.90
20759;DHT22;10539;53.686;9.158;2023-06-14T05:48:51;16.70;99.90
20759;DHT22;10539;53.686;9.158;2023-06-14T05:51:17;16.70;99.90
20759;DHT22;10539;53.686;9.158;2023-06-14T05:53:46;16.80;99.90
20759;DHT22;10539;53.686;9.158;2023-06-14T05:56:12;16.90;99.90
20759;DHT22;10539;53.686;9.158;2023-06-14T05:58:38;16.90;99.90
20759;DHT22;10539;53.686;9.158;2023-06-14T06:01:04;17.00;99.90
20759;DHT22;10539;53.686;9.158;2023-06-14T06:03:30;17.00;99.90
20759;DHT22;10539;53.686;9.158;2023-06-14T06:05:56;17.10;99.90
20759;DHT22;10539;53.686;9.158;2023-06-14T06:08:22;17.20;99.90
20759;DHT22;10539;53.686;9.158;2023-06-14T06:10:48;17.40;99.90
20759;DHT22;10539;53.686;9.158;2023-06-14T06:13:14;17.60;99.90
20759;DHT22;10539;53.686;9.158;2023-06-14T06:15:40;17.60;99.90
20759;DHT22;10539;53.686;9.158;2023-06-14T06:18:06;17.70;99.90
20759;DHT22;10539;53.686;9.158;2023-06-14T06:20:35;17.70;99.90
20759;DHT22;10539;53.686;9.158;2023-06-14T06:23:02;17.80;99.90
20759;DHT22;10539;53.686;9.158;2023-06-14T06:25:28;17.90;99.90
20759;DHT22;10539;53.686;9.158;2023-06-14T06:27:55;18.00;99.90
20759;DHT22;10539;53.686;9.158;2023-06-14T06:30:24;18.10;99.90
20759;DHT22;10539;53.686;9.158;2023-06-14T06:32:50;18.20;99.90
20759;DHT22;10539;53.686;9.158;2023-06-14T06:35:19;18.30;99.90
20759;DHT22;10539;53.686;9.158;2023-06-14T06:37:45;18.40;99.90
20759;DHT22;10539;53.686;9.158;2023-06-14T06:40:11;18.50;99.90
20759;DHT22;10539;53.686;9.158;2023-06-14T06:42:36;18.70;99.90
20759;DHT22;10539;53.686;9.158;2023-06-14T06:45:03;19.30;99.90
20759;DHT22;10539;53.686;9.158;2023-06-14T06:47:29;20.40;99.90
20759;DHT22;10539;53.686;9.158;2023-06-14T06:49:55;21.20;99.90
20759;DHT22;10539;53.686;9.158;2023-06-14T06:52:23;21.70;99.90
20759;DHT22;10539;53.686;9.158;2023-06-14T06:54:49;22.20;99.90
20759;DHT22;10539;53.686;9.158;2023-06-14T06:57:16;22.60;99.90
20759;DHT22;10539;53.686;9.158;2023-06-14T06:59:41;22.70;99.90
20759;DHT22;10539;53.686;9.158;2023-06-14T07:02:07;22.90;99.90
20759;DHT22;10539;53.686;9.158;2023-06-14T07:04:35;23.30;99.90
20759;DHT22;10539;53.686;9.158;2023-06-14T07:07:01;23.40;99.90
20759;DHT22;10539;53.686;9.158;2023-06-14T07:09:27;23.50;99.90
20759;DHT22;10539;53.686;9.158;2023-06-14T07:11:53;23.80;99.90
20759;DHT22;10539;53.686;9.158;2023-06-14T07:14:18;24.00;99.90
20759;DHT22;10539;53.686;9.158;2023-06-14T07:16:44;24.20;99.90
20759;DHT22;10539;53.686;9.158;2023-06-14T07:19:11;24.30;99.90
20759;DHT22;10539;53.686;9.158;2023-06-14T07:21:39;24.30;99.90
20759;DHT22;10539;53.686;9.158;2023-06-14T07:24:08;24.10;99.90
20759;DHT22;10539;53.686;9.158;2023-06-14T07:26:34;24.40;99.90
20759;DHT22;10539;53.686;9.158;2023-06-14T07:29:01;24.30;99.90
20759;DHT22;10539;53.686;9.158;2023-06-14T07:31:26;24.20;99.90
20759;DHT22;10539;53.686;9.158;2023-06-14T07:33:53;24.00;99.90
20759;DHT22;10539;53.686;9.158;2023-06-14T07:36:19;23.90;99.90
20759;DHT22;10539;53.686;9.158;2023-06-14T07:38:45;23.90;99.90
20759;DHT22;10539;53.686;9.158;2023-06-14T07:41:14;23.80;99.90
20759;DHT22;10539;53.686;9.158;2023-06-14T07:43:40;23.70;99.90
20759;DHT22;10539;53.686;9.158;2023-06-14T07:46:06;23.70;99.90
20759;DHT22;10539;53.686;9.158;2023-06-14T07:48:31;23.70;99.90
20759;DHT22;10539;53.686;9.158;2023-06-14T07:50:57;23.50;99.90
20759;DHT22;10539;53.686;9.158;2023-06-14T07:53:23;23.10;99.90
20759;DHT22;10539;53.686;9.158;2023-06-14T07:55:49;23.00;99.90
20759;DHT22;10539;53.686;9.158;2023-06-14T07:58:16;22.90;99.90
20759;DHT22;10539;53.686;9.158;2023-06-14T08:00:41;22.80;99.90
20759;DHT22;10539;53.686;9.158;2023-06-14T08:03:07;22.70;99.90
20759;DHT22;10539;53.686;9.158;2023-06-14T08:05:33;22.50;99.90
20759;DHT22;10539;53.686;9.158;2023-06-14T08:08:02;22.40;99.90
20759;DHT22;10539;53.686;9.158;2023-06-14T08:10:28;22.50;99.90
20759;DHT22;10539;53.686;9.158;2023-06-14T08:12:53;22.50;99.90
20759;DHT22;10539;53.686;9.158;2023-06-14T08:15:19;22.40;99.90
20759;DHT22;10539;53.686;9.158;2023-06-14T08:17:46;22.50;99.90
20759;DHT22;10539;53.686;9.158;2023-06-14T08:20:12;22.50;99.90
20759;DHT22;10539;53.686;9.158;2023-06-14T08:22:39;22.40;99.90
20759;DHT22;10539;53.686;9.158;2023-06-14T08:25:08;22.40;99.90
20759;DHT22;10539;53.686;9.158;2023-06-14T08:27:35;22.40;99.90
20759;DHT22;10539;53.686;9.158;2023-06-14T08:30:01;22.40;99.90
20759;DHT22;10539;53.686;9.158;2023-06-14T08:32:28;22.40;99.90
20759;DHT22;10539;53.686;9.158;2023-06-14T08:34:53;22.30;99.90
20759;DHT22;10539;53.686;9.158;2023-06-14T08:37:20;22.30;99.90
20759;DHT22;10539;53.686;9.158;2023-06-14T08:39:49;22.30;99.90
20759;DHT22;10539;53.686;9.158;2023-06-14T08:42:15;22.40;99.90
20759;DHT22;10539;53.686;9.158;2023-06-14T08:44:42;22.50;99.90
20759;DHT22;10539;53.686;9.158;2023-06-14T08:47:09;22.60;99.90
20759;DHT22;10539;53.686;9.158;2023-06-14T08:49:37;22.70;99.90
20759;DHT22;10539;53.686;9.158;2023-06-14T08:52:10;22.70;99.90
20759;DHT22;10539;53.686;9.158;2023-06-14T08:54:36;22.80;99.90
20759;DHT22;10539;53.686;9.158;2023-06-14T08:57:11;22.80;99.90
20759;DHT22;10539;53.686;9.158;2023-06-14T08:59:46;22.80;99.90
20759;DHT22;10539;53.686;9.158;2023-06-14T09:02:12;22.80;99.90
20759;DHT22;10539;53.686;9.158;2023-06-14T09:04:40;22.80;99.90
20759;DHT22;10539;53.686;9.158;2023-06-14T09:07:06;22.80;99.90
20759;DHT22;10539;53.686;9.158;2023-06-14T09:09:32;22.90;99.90
20759;DHT22;10539;53.686;9.158;2023-06-14T09:12:00;22.90;99.90
20759;DHT22;10539;53.686;9.158;2023-06-14T09:14:26;22.80;99.90
20759;DHT22;10539;53.686;9.158;2023-06-14T09:16:53;22.70;99.90
20759;DHT22;10539;53.686;9.158;2023-06-14T09:19:26;22.70;99.90
20759;DHT22;10539;53.686;9.158;2023-06-14T09:21:52;22.80;99.90
20759;DHT22;10539;53.686;9.158;2023-06-14T09:24:19;22.90;99.90
20759;DHT22;10539;53.686;9.158;2023-06-14T09:26:48;22.90;99.70
20759;DHT22;10539;53.686;9.158;2023-06-14T09:29:18;23.00;99.90
20759;DHT22;10539;53.686;9.158;2023-06-14T09:31:47;23.00;99.70
20759;DHT22;10539;53.686;9.158;2023-06-14T09:34:13;23.10;99.90
20759;DHT22;10539;53.686;9.158;2023-06-14T09:36:42;23.20;99.90
20759;DHT22;10539;53.686;9.158;2023-06-14T09:39:08;23.30;99.50
20759;DHT22;10539;53.686;9.158;2023-06-14T09:41:38;23.30;99.00
20759;DHT22;10539;53.686;9.158;2023-06-14T09:44:06;23.40;98.50
20759;DHT22;10539;53.686;9.158;2023-06-14T09:46:32;23.40;98.70
20759;DHT22;10539;53.686;9.158;2023-06-14T09:48:59;23.60;98.10
20759;DHT22;10539;53.686;9.158;2023-06-14T09:51:28;23.70;98.70
20759;DHT22;10539;53.686;9.158;2023-06-14T09:54:04;23.80;98.30
20759;DHT22;10539;53.686;9.158;2023-06-14T09:56:36;23.90;97.60
20759;DHT22;10539;53.686;9.158;2023-06-14T09:59:05;23.90;97.70
20759;DHT22;10539;53.686;9.158;2023-06-14T10:01:34;23.90;96.70
20759;DHT22;10539;53.686;9.158;2023-06-14T10:04:04;23.80;97.50
20759;DHT22;10539;53.686;9.158;2023-06-14T10:06:40;23.80;96.90
20759;DHT22;10539;53.686;9.158;2023-06-14T10:09:08;23.90;96.70
20759;DHT22;10539;53.686;9.158;2023-06-14T10:11:36;24.00;96.80
20759;DHT22;10539;53.686;9.158;2023-06-14T10:14:04;24.20;96.50
20759;DHT22;10539;53.686;9.158;2023-06-14T10:17:09;24.30;96.70
20759;DHT22;10539;53.686;9.158;2023-06-14T10:19:42;24.50;96.50
20759;DHT22;10539;53.686;9.158;2023-06-14T10:22:18;24.50;95.30
20759;DHT22;10539;53.686;9.158;2023-06-14T10:24:45;24.50;95.80
20759;DHT22;10539;53.686;9.158;2023-06-14T10:27:14;24.60;95.30
20759;DHT22;10539;53.686;9.158;2023-06-14T10:32:24;24.80;96.40
20759;DHT22;10539;53.686;9.158;2023-06-14T10:34:55;25.00;95.60
20759;DHT22;10539;53.686;9.158;2023-06-14T10:37:22;24.90;95.60
20759;DHT22;10539;53.686;9.158;2023-06-14T10:39:47;24.80;95.00
20759;DHT22;10539;53.686;9.158;2023-06-14T10:42:14;24.40;95.00
20759;DHT22;10539;53.686;9.158;2023-06-14T10:44:41;24.30;95.70
20759;DHT22;10539;53.686;9.158;2023-06-14T10:47:20;24.40;95.20
20759;DHT22;10539;53.686;9.158;2023-06-14T10:50:16;24.60;94.20
20759;DHT22;10539;53.686;9.158;2023-06-14T10:52:45;24.80;93.80
20759;DHT22;10539;53.686;9.158;2023-06-14T10:55:14;24.70;94.50
20759;DHT22;10539;53.686;9.158;2023-06-14T10:57:46;24.50;94.70
20759;DHT22;10539;53.686;9.158;2023-06-14T11:00:14;24.60;93.90
20759;DHT22;10539;53.686;9.158;2023-06-14T11:05:55;24.90;94.00
20759;DHT22;10539;53.686;9.158;2023-06-14T11:08:52;24.90;93.40
20759;DHT22;10539;53.686;9.158;2023-06-14T11:11:22;24.90;93.40
20759;DHT22;10539;53.686;9.158;2023-06-14T11:13:49;25.00;93.70
20759;DHT22;10539;53.686;9.158;2023-06-14T11:16:17;25.20;93.10
20759;DHT22;10539;53.686;9.158;2023-06-14T11:18:47;25.30;91.80
20759;DHT22;10539;53.686;9.158;2023-06-14T11:21:18;25.30;91.60
20759;DHT22;10539;53.686;9.158;2023-06-14T11:23:52;25.20;91.90
20759;DHT22;10539;53.686;9.158;2023-06-14T11:26:27;25.10;91.40
20759;DHT22;10539;53.686;9.158;2023-06-14T11:29:00;24.90;91.70
20759;DHT22;10539;53.686;9.158;2023-06-14T11:31:29;24.80;92.40
20759;DHT22;10539;53.686;9.158;2023-06-14T11:33:57;24.80;93.20
20759;DHT22;10539;53.686;9.158;2023-06-14T11:36:26;25.00;92.50
20759;DHT22;10539;53.686;9.158;2023-06-14T11:41:25;25.20;92.00
20759;DHT22;10539;53.686;9.158;2023-06-14T11:43:54;25.30;91.80
20759;DHT22;10539;53.686;9.158;2023-06-14T11:46:20;25.40;91.70
20759;DHT22;10539;53.686;9.158;2023-06-14T11:48:49;25.50;91.20
20759;DHT22;10539;53.686;9.158;2023-06-14T11:51:15;25.80;90.60
20759;DHT22;10539;53.686;9.158;2023-06-14T11:53:42;25.90;90.60
20759;DHT22;10539;53.686;9.158;2023-06-14T11:56:08;26.00;90.80
20759;DHT22;10539;53.686;9.158;2023-06-14T11:58:34;26.10;90.10
20759;DHT22;10539;53.686;9.158;2023-06-14T12:01:08;26.10;90.50
20759;DHT22;10539;53.686;9.158;2023-06-14T12:03:33;26.00;89.00
20759;DHT22;10539;53.686;9.158;2023-06-14T12:06:08;25.60;89.20
20759;DHT22;10539;53.686;9.158;2023-06-14T12:08:37;25.40;90.20
20759;DHT22;10539;53.686;9.158;2023-06-14T12:11:14;25.20;90.40
20759;DHT22;10539;53.686;9.158;2023-06-14T12:13:41;25.10;91.10
20759;DHT22;10539;53.686;9.158;2023-06-14T12:16:11;25.20;90.90
20759;DHT22;10539;53.686;9.158;2023-06-14T12:18:38;25.40;90.60
20759;DHT22;10539;53.686;9.158;2023-06-14T12:21:06;25.50;90.30
20759;DHT22;10539;53.686;9.158;2023-06-14T12:23:46;25.70;89.50
20759;DHT22;10539;53.686;9.158;2023-06-14T12:26:16;25.80;89.70
20759;DHT22;10539;53.686;9.158;2023-06-14T12:28:46;25.80;89.80
20759;DHT22;10539;53.686;9.158;2023-06-14T12:31:12;25.90;89.80
20759;DHT22;10539;53.686;9.158;2023-06-14T12:33:39;26.00;89.90
20759;DHT22;10539;53.686;9.158;2023-06-14T12:36:08;26.20;88.90
20759;DHT22;10539;53.686;9.158;2023-06-14T12:38:34;26.40;89.20
20759;DHT22;10539;53.686;9.158;2023-06-14T12:41:00;26.50;88.90
20759;DHT22;10539;53.686;9.158;2023-06-14T12:43:26;26.40;88.30
20759;DHT22;10539;53.686;9.158;2023-06-14T12:45:53;26.20;88.60
20759;DHT22;10539;53.686;9.158;2023-06-14T12:48:19;25.90;88.90
20759;DHT22;10539;53.686;9.158;2023-06-14T12:50:45;25.70;88.40
20759;DHT22;10539;53.686;9.158;2023-06-14T12:53:14;25.70;88.80
20759;DHT22;10539;53.686;9.158;2023-06-14T12:55:42;25.70;88.80
20759;DHT22;10539;53.686;9.158;2023-06-14T12:58:08;25.80;88.40
20759;DHT22;10539;53.686;9.158;2023-06-14T13:00:35;26.00;88.30
20759;DHT22;10539;53.686;9.158;2023-06-14T13:03:01;26.20;88.70
20759;DHT22;10539;53.686;9.158;2023-06-14T13:05:27;26.30;87.90
20759;DHT22;10539;53.686;9.158;2023-06-14T13:07:53;26.50;86.20
20759;DHT22;10539;53.686;9.158;2023-06-14T13:10:18;26.40;85.30
20759;DHT22;10539;53.686;9.158;2023-06-14T13:12:44;26.50;86.40
20759;DHT22;10539;53.686;9.158;2023-06-14T13:15:10;26.60;86.30
20759;DHT22;10539;53.686;9.158;2023-06-14T13:17:36;26.60;86.80
20759;DHT22;10539;53.686;9.158;2023-06-14T13:20:06;26.60;86.40
20759;DHT22;10539;53.686;9.158;2023-06-14T13:22:40;26.50;86.00
20759;DHT22;10539;53.686;9.158;2023-06-14T13:25:06;26.50;86.40
20759;DHT22;10539;53.686;9.158;2023-06-14T13:27:35;26.50;86.20
20759;DHT22;10539;53.686;9.158;2023-06-14T13:30:01;26.50;85.30
20759;DHT22;10539;53.686;9.158;2023-06-14T13:32:27;26.50;84.70
20759;DHT22;10539;53.686;9.158;2023-06-14T13:34:55;26.50;85.80
20759;DHT22;10539;53.686;9.158;2023-06-14T13:37:20;26.60;85.40
20759;DHT22;10539;53.686;9.158;2023-06-14T13:39:46;26.70;85.40
20759;DHT22;10539;53.686;9.158;2023-06-14T13:42:12;26.70;85.10
20759;DHT22;10539;53.686;9.158;2023-06-14T13:44:38;26.80;85.30
20759;DHT22;10539;53.686;9.158;2023-06-14T13:47:13;26.80;84.60
20759;DHT22;10539;53.686;9.158;2023-06-14T13:49:39;26.80;84.20
20759;DHT22;10539;53.686;9.158;2023-06-14T13:52:05;26.80;84.80
20759;DHT22;10539;53.686;9.158;2023-06-14T13:54:30;26.70;83.20
20759;DHT22;10539;53.686;9.158;2023-06-14T13:56:56;26.70;82.40
20759;DHT22;10539;53.686;9.158;2023-06-14T13:59:24;26.60;81.30
20759;DHT22;10539;53.686;9.158;2023-06-14T14:01:50;26.60;80.60
20759;DHT22;10539;53.686;9.158;2023-06-14T14:04:17;26.60;81.60
20759;DHT22;10539;53.686;9.158;2023-06-14T14:06:47;26.70;81.40
20759;DHT22;10539;53.686;9.158;2023-06-14T14:09:13;26.70;81.30
20759;DHT22;10539;53.686;9.158;2023-06-14T14:11:39;26.80;80.20
20759;DHT22;10539;53.686;9.158;2023-06-14T14:14:07;26.80;80.30
20759;DHT22;10539;53.686;9.158;2023-06-14T14:16:32;26.80;81.40
20759;DHT22;10539;53.686;9.158;2023-06-14T14:18:58;26.90;82.10
20759;DHT22;10539;53.686;9.158;2023-06-14T14:21:25;26.90;81.30
20759;DHT22;10539;53.686;9.158;2023-06-14T14:23:53;26.90;78.90
20759;DHT22;10539;53.686;9.158;2023-06-14T14:26:19;26.60;79.70
20759;DHT22;10539;53.686;9.158;2023-06-14T14:28:44;26.60;78.90
20759;DHT22;10539;53.686;9.158;2023-06-14T14:31:10;26.60;78.60
20759;DHT22;10539;53.686;9.158;2023-06-14T14:33:36;26.80;77.70
20759;DHT22;10539;53.686;9.158;2023-06-14T14:36:02;26.80;77.70
20759;DHT22;10539;53.686;9.158;2023-06-14T14:38:29;26.90;78.20
20759;DHT22;10539;53.686;9.158;2023-06-14T14:40:55;27.00;78.30
20759;DHT22;10539;53.686;9.158;2023-06-14T14:43:24;27.10;78.80
20759;DHT22;10539;53.686;9.158;2023-06-14T14:45:52;27.10;79.10
20759;DHT22;10539;53.686;9.158;2023-06-14T14:48:18;27.10;79.70
20759;DHT22;10539;53.686;9.158;2023-06-14T14:50:45;27.00;79.30
20759;DHT22;10539;53.686;9.158;2023-06-14T14:53:10;26.90;78.40
20759;DHT22;10539;53.686;9.158;2023-06-14T14:55:36;26.80;78.70
20759;DHT22;10539;53.686;9.158;2023-06-14T14:58:03;26.90;77.50
20759;DHT22;10539;53.686;9.158;2023-06-14T15:00:29;26.80;77.40
20759;DHT22;10539;53.686;9.158;2023-06-14T15:02:55;26.80;76.10
20759;DHT22;10539;53.686;9.158;2023-06-14T15:05:21;26.90;76.70
20759;DHT22;10539;53.686;9.158;2023-06-14T15:07:46;26.80;77.40
20759;DHT22;10539;53.686;9.158;2023-06-14T15:10:12;26.80;76.60
20759;DHT22;10539;53.686;9.158;2023-06-14T15:12:38;26.80;76.50
20759;DHT22;10539;53.686;9.158;2023-06-14T15:15:04;26.70;77.40
20759;DHT22;10539;53.686;9.158;2023-06-14T15:17:30;26.70;78.10
20759;DHT22;10539;53.686;9.158;2023-06-14T15:19:56;26.70;78.20
20759;DHT22;10539;53.686;9.158;2023-06-14T15:22:21;26.80;77.50
20759;DHT22;10539;53.686;9.158;2023-06-14T15:24:47;26.80;77.10
20759;DHT22;10539;53.686;9.158;2023-06-14T15:27:13;26.90;75.90
20759;DHT22;10539;53.686;9.158;2023-06-14T15:29:42;26.80;75.10
20759;DHT22;10539;53.686;9.158;2023-06-14T15:32:08;26.80;74.90
20759;DHT22;10539;53.686;9.158;2023-06-14T15:34:34;26.80;75.50
20759;DHT22;10539;53.686;9.158;2023-06-14T15:37:00;26.80;75.40
20759;DHT22;10539;53.686;9.158;2023-06-14T15:39:29;26.70;74.70
20759;DHT22;10539;53.686;9.158;2023-06-14T15:41:58;26.70;74.40
20759;DHT22;10539;53.686;9.158;2023-06-14T15:44:24;26.70;74.80
20759;DHT22;10539;53.686;9.158;2023-06-14T15:46:49;26.70;75.00